Create Custom Reports and Graphics: Custom Report

Latest Observations

Map

15 Minute Data

Latest Observation

39 Stations

15 Minute Data | America/Los_Angeles
as of 10/28/21 4:22 AM PDT
Station Date Time Temp (°F) RH (%) Dew Pt (°F) Wind Dir (°) Wind Spd (mph) Wind Gust (mph) Solar Rad (W/m2) Latest Rain (In) Daily Rain (In) Daily Max Temp (°F) Daily Min Temp (°F) Daily Max Wind (mph) Daily ETo (in) Daily Leaf Wet Hrs (hrs)
Colony 1 10/28/21 0415 50.3   1.1 98   2 49.9   0.5 E | 85 0.3   0.2 1.7   0.7 0   0 0.00 0.00 53.4   1.4 50.1   0.8 3.1   1.1 0.000   0.000 -
Colony 2 10/28/21 0415 50.7   0.8 97   1 49.8   0.5 SSE | 160 0.5   0.4 1.3   0.0 0   0 0.00 0.00 54.6   0.1 50.5   0.4 3.7   1.1 0.000   0.000 -
5 Wells 10/28/21 0415 50.8   0.1 100   0 50.8   0.1 ESE | 103 1.7   0.5 3.1   1.0 0   0 0.00 0.00 55.4   1.9 50.7   0.1 5.0   1.8 0.000   0.000 -
Simmerhorn 10/28/21 0415 51.4   0.1 100   0 51.4   0.1 - - - - - - 54.2   1.2 51.0   0.2 - - -
Galt-East 10/28/21 0415 52.6   1.9 98   3 52.1   2.7 ESE | 120 1.3   0.2 3.4   1.6 0   0 0.00 0.00 55.1   0.7 52.1   1.9 4.1   1.6 0.000   0.000 -
Borden Hills 10/28/21 0415 52.6   0.1 100   3 52.6   0.9 ENE | 69 1.4   0.2 2.1   0.2 0   0 0.00 0.00 56.4   1.4 52.5   0.2 3.8   0.5 0.000   0.000 -
Sierra Loma-L27 10/28/21 0415 51.7   0.6 100   2 51.7   0.0 NW | 322 0.8   0.3 2.2   0.4 - 0.00 0.00 54.9   0.0 51.0   0.5 4.1   1.2 - -
Lockeford 10/28/21 0415 49.0   1.2 96   1 47.8   0.9 E | 97 0.6   0.4 2.7   1.0 1   0 0.00 0.00 54.8   2.2 48.7   1.1 4.1   1.3 0.000   0.000 3.2   0.0
Lone Oak-L28 10/28/21 0415 46.3   1.0 100   0 46.4   1.0 SE | 125 2.1   1.4 3.0   1.7 - 0.00 0.00 49.1   1.9 45.9   0.9 3.9   0.8 - -
Kost Rd 10/28/21 0415 52.2   0.0 100   0 52.1   0.1 N | 0 0.0   0.0 0.0   0.8 0   0 0.00 0.00 55.2   0.8 51.5   0.5 4.6   2.2 0.000   0.000 -
Thornton 10/28/21 0415 50.3   0.0 89   0 47.2   0.1 N | 0 0.0   0.0 0.0   0.0 0   0 0.00 0.00 52.2   1.4 49.9   0.3 2.7   1.0 0.000   0.000 3.2   0.0
Lodi (LangeTwins) 10/28/21 0415 52.1   0.0 99   0 51.9   0.1 N | 0 0.0   0.0 0.0   0.0 0   0 0.00 0.00 56.1   2.2 51.9   0.4 3.1   3.1 0.000   0.000 3.2   2.8
Gilbeau Ranch 10/28/21 0415 50.7   0.1 98   2 50.1   0.5 E | 94 0.3   0.1 1.2   0.2 0   0 0.00 0.00 56.4   2.4 50.5   0.0 4.8   2.6 0.000   0.000 -
Galt West 10/28/21 0415 50.5   1.6 96   0 49.4   1.6 NW | 310 0.1   0.4 1.1   0.7 0   0 0.00 0.00 52.4   1.2 50.2   1.0 2.4   0.1 0.000   0.000 -
Valley Oak 10/28/21 0415 50.6   0.1 99   1 50.2   0.4 SE | 126 0.5   0.3 1.5   0.2 0   0 0.00 0.00 54.9   1.1 50.4   0.1 3.4   0.7 0.000   0.000 -
Guard Rd (Lodi WSW) 10/28/21 0415 53.6   3.6 98   1 53.1   3.9 N | 359 0.7   0.0 2.4   0.7 0   0 0.00 0.00 54.9   0.9 50.2   0.5 2.4   0.1 0.000   0.000 3.2   0.0
Linden 10/28/21 0415 50.4   1.9 99   1 50.3   2.1 ESE | 114 0.3   0.2 1.4   0.8 - 0.00 0.00 53.5   2.8 49.2   0.9 3.6   1.8 - 3.2   0.0
DeVries Road-North 10/28/21 0415 50.2   0.5 99   0 49.8   0.6 N | 0 0.0   0.0 0.0   0.0 0   0 0.00 0.00 55.5   2.9 49.9   0.6 4.1   1.9 0.000   0.000 -
Acampo 10/28/21 0415 49.4   0.2 95   2 48.1   0.2 E | 91 0.7   0.7 3.1   3.1 0   0 - 0.00 54.4   2.1 49.0   0.4 3.1   2.0 0.000   0.000 3.2   0.0
Acampo (Woodbridge) 10/28/21 0415 52.5   0.7 98   3 51.9   1.5 ESE | 104 2.6   1.3 3.4   1.1 0   0 0.00 0.00 55.9   0.2 52.2   0.7 3.5   0.9 0.000   0.000 -
Lodi West 10/28/21 0415 53.8   1.0 94   2 52.2   1.8 NNW | 330 0.0   0.0 1.3   0.4 0   0 0.00 0.00 57.8   2.4 53.6   1.2 4.4   2.2 0.000   0.000 0.0   0.0
Teresi-Alpine Rd (East Lodi) 10/28/21 0415 51.4   0.5 97   2 50.5   0.0 ESE | 105 0.7   0.1 1.6   0.3 0   0 0.00 0.00 54.2   0.2 50.9   0.4 3.4   0.4 - -
Victor - N (Katusha) 10/28/21 0415 51.1   0.1 98   1 50.6   0.3 N | 0 0.0   0.0 0.0   1.4 - 0.00 0.00 56.1   3.5 50.2   0.4 - - -
Live Oak 10/28/21 0415 50.3   0.8 100   0 50.2   0.9 NE | 51 1.1   0.6 2.1   0.3 0   0 0.00 0.00 54.8   2.9 50.1   0.9 3.2   0.2 0.000   0.000 -
Sheldon 10/28/21 0415 49.1   1.1 95   1 47.8   1.3 N | 0 0.0   0.0 0.0   0.0 0   0 0.00 0.00 53.2   0.4 48.8   1.3 3.4   1.0 0.000   0.000 3.2   0.0
Sloughhouse 10/28/21 0415 49.1   0.8 95   1 47.7   0.9 E | 92 0.0   0.0 0.7   0.7 0   0 0.00 0.00 52.2   0.6 48.1   0.4 3.4   1.0 0.000   0.000 -
Utter - Wilson 10/28/21 0415 50.0   3.2 100   3 49.9   2.4 NNW | 346 0.3   1.1 1.6   1.1 0   0 0.00 0.00 56.8   1.5 49.6   3.4 3.0   1.2 0.000   0.000 -
Clarksburg 10/28/21 0415 51.4   2.3 91   2 49.0   1.5 N | 0 0.0   0.3 0.0   1.2 0   0 0.00 0.00 58.0   2.0 50.7   1.9 3.2   1.2 0.000   0.000 -
Clarksburg-3A2 10/28/21 0415 53.2   0.2 95   2 52.0   0.3 NNE | 17 1.8   1.8 2.4   2.4 0   0 0.00 0.00 57.6   1.6 52.1   0.6 5.2   0.8 0.000   0.000 -
Gorter - Wilson 10/28/21 0415 48.8   2.0 99   0 48.6   1.9 WNW | 297 0.6   0.4 2.1   1.0 0   0 0.00 0.00 56.7   3.3 48.5   1.4 3.3   0.4 0.000   0.000 -
Hood 10/28/21 0415 54.5   2.1 99   1 54.3   1.9 WNW | 302 1.7   1.6 3.1   1.9 0   0 0.00 0.00 57.7   3.4 54.0   2.4 4.4   1.7 0.000   0.000 -
Courtland-C3 10/28/21 0415 51.2   0.7 99   1 51.0   0.4 N | 357 1.0   0.1 1.8   0.0 - 0.00 0.00 53.9   1.4 50.2   1.2 3.8   0.4 - -
Pacific Fruit 10/28/21 0415 52.4   0.7 96   1 51.3   0.4 NW | 318 1.3   0.1 3.7   0.9 0   0 0.00 0.00 53.6   2.0 50.9   0.5 3.7   0.5 0.000   0.000 -
Ryer Island South 10/28/21 0400 47.7   3.9 97   2 47.0   3.4 SW | 232 0.6   0.3 2.2   0.7 0   0 0.00 0.00 51.0   5.5 47.6   3.7 2.2   3.5 0.000   0.000 3.0   2.0
Farmington (Mobley100) 10/28/21 0415 50.6   1.6 96   0 49.6   1.6 N | 0 0.0   0.0 0.0   0.0 - - - 53.9   2.7 50.2   1.4 1.7   0.2 - -
Collegeville 10/28/21 0415 52.2   3.3 99   0 51.9   3.2 E | 96 0.9   0.7 2.5   1.4 0   0 0.00 0.00 55.9   5.3 51.9   3.2 3.1   1.2 0.000   0.000 -
Oakdale North (28 Mile Rd) 10/28/21 0415 55.2   7.0 99   3 55.1   7.8 ESE | 117 0.8   0.8 3.0   2.1 - - - 55.6   4.9 51.1   3.0 4.0   2.5 - -
Escalon 10/28/21 0415 50.7   2.1 98   0 50.1   2.0 NE | 49 0.2   0.1 1.4   1.1 - 0.00 0.00 57.1   4.3 50.4   1.9 2.8   0.1 - 3.2   0.0
Claussen 10/28/21 0415 56.0   4.1 95   2 54.5   3.4 WNW | 284 1.7   0.3 2.8   0.8 0   0 0.00 0.00 58.5   3.6 54.4   3.2 4.5   0.4 0.000   0.000 -
Max     56.0 100 55.1 - 2.6 3.7 1 0.00 0.00 58.5 54.4 5.2 0.000 3.2
Avg     51.2 97 50.5 - 0.7 1.7 0 0.00 - - - - - -
Min     46.3 89 46.4 - 0.0 0.0 0 0.00 0.00 49.1 45.9 1.7 0.000 0.0

Latest Observations

Map

Hourly Data